Time;durP1;ratioP1;P1;durP2;ratioP2;P2;SDS_P1;SDS_P2;PMS_P1;PMS_P2;Temp;Humidity;BMP_temperature;BMP_pressure;BME280_temperature;BME280_humidity;BME280_pressure;Samples;Min_cycle;Max_cycle;Signal;HPM_P1;HPM_P2
2022/12/01 00:02:05;;;;;;;80.88;31.55;;;;;;;3.23;100.00;102771.16;5064799;28;20033;-35
2022/12/01 00:04:31;;;;;;;84.15;31.35;;;;;;;3.23;100.00;102766.69;5054694;28;20033;-36
2022/12/01 00:06:56;;;;;;;79.68;30.88;;;;;;;3.27;100.00;102775.38;5067216;28;20055;-37
2022/12/01 00:12:05;;;;;;;90.13;33.72;;;;;;;3.29;100.00;102776.13;5049049;28;20132;-36
2022/12/01 00:14:31;;;;;;;90.00;32.40;;;;;;;3.27;100.00;102778.88;5065552;28;20538;-38
2022/12/01 00:16:56;;;;;;;80.75;31.55;;;;;;;3.27;100.00;102788.69;5066110;28;20102;-36
2022/12/01 00:19:25;;;;;;;75.32;30.40;;;;;;;3.28;100.00;102782.41;5056889;28;20053;-36
2022/12/01 00:21:51;;;;;;;82.25;32.45;;;;;;;3.24;100.00;102779.06;5072099;28;20032;-36
2022/12/01 00:24:16;;;;;;;84.72;32.83;;;;;;;3.22;100.00;102785.41;5056103;28;20037;-35
2022/12/01 00:26:41;;;;;;;86.38;32.47;;;;;;;3.22;100.00;102780.94;5070538;28;20041;-36
2022/12/01 00:29:07;;;;;;;92.43;33.65;;;;;;;3.22;100.00;102783.59;5062599;28;20116;-36
2022/12/01 00:31:32;;;;;;;95.30;34.30;;;;;;;3.22;100.00;102783.59;5064601;28;20089;-35
2022/12/01 00:33:58;;;;;;;88.97;33.65;;;;;;;3.21;100.00;102787.22;5067134;28;20375;-37
2022/12/01 00:36:23;;;;;;;77.00;31.60;;;;;;;3.19;100.00;102780.28;5067419;28;20197;-39
2022/12/01 00:38:53;;;;;;;88.28;32.50;;;;;;;3.20;100.00;102777.50;5066495;28;20322;-37
2022/12/01 00:41:19;;;;;;;97.28;34.35;;;;;;;3.27;100.00;102780.69;5060161;28;20126;-37
2022/12/01 00:43:45;;;;;;;92.22;34.47;;;;;;;3.24;100.00;102780.88;5060494;28;20430;-35
2022/12/01 00:46:10;;;;;;;90.60;34.55;;;;;;;3.23;100.00;102781.81;5071624;28;20075;-35
2022/12/01 00:48:35;;;;;;;93.30;34.55;;;;;;;3.20;100.00;102780.16;5062886;28;20037;-37
2022/12/01 00:51:01;;;;;;;88.72;33.55;;;;;;;3.26;100.00;102787.78;5070951;28;20031;-36
2022/12/01 00:53:26;;;;;;;95.95;34.97;;;;;;;3.24;100.00;102787.06;5056356;28;20112;-36
2022/12/01 00:55:54;;;;;;;91.00;33.35;;;;;;;3.27;100.00;102789.53;5063403;28;20108;-38
2022/12/01 00:58:20;;;;;;;;;;;;;;;3.40;100.00;102791.50;5053296;28;20344;-38
2022/12/01 01:00:45;;;;;;;90.07;32.22;;;;;;;3.42;100.00;102794.91;5070233;28;20410;-37
2022/12/01 01:03:11;;;;;;;91.70;33.53;;;;;;;3.37;100.00;102795.22;5061896;28;20048;-36
2022/12/01 01:05:37;;;;;;;95.85;34.25;;;;;;;3.40;100.00;102799.50;5066515;28;20025;-37
2022/12/01 01:08:08;;;;;;;93.63;35.45;;;;;;;3.39;100.00;102792.44;5054433;28;20559;-37
2022/12/01 01:10:38;;;;;;;101.57;36.45;;;;;;;3.43;100.00;102804.63;5053635;28;20029;-39
2022/12/01 01:13:03;;;;;;;97.05;35.22;;;;;;;3.46;100.00;102800.00;5055762;28;20044;-37
2022/12/01 01:15:28;;;;;;;103.35;34.97;;;;;;;3.56;100.00;102804.81;5052838;28;20075;-37
2022/12/01 01:17:53;;;;;;;106.18;35.25;;;;;;;3.55;100.00;102801.25;5054289;28;20041;-35
2022/12/01 01:20:19;;;;;;;98.13;35.58;;;;;;;3.57;100.00;102807.34;5069395;28;20036;-38
2022/12/01 01:22:44;;;;;;;102.03;35.40;;;;;;;3.56;100.00;102800.31;5067989;28;20025;-37
2022/12/01 01:25:09;;;;;;;103.72;35.90;;;;;;;3.55;100.00;102806.56;5052405;28;20025;-35
2022/12/01 01:27:35;;;;;;;99.80;35.45;;;;;;;3.58;100.00;102802.88;5051413;28;20064;-36
2022/12/01 01:30:00;;;;;;;107.68;35.58;;;;;;;3.55;100.00;102809.25;5052981;28;20388;-36
2022/12/01 01:32:25;;;;;;;101.78;35.63;;;;;;;3.56;100.00;102813.63;5052272;28;20452;-36
2022/12/01 01:34:51;;;;;;;109.97;35.75;;;;;;;3.50;100.00;102816.63;5053186;28;20025;-36
2022/12/01 01:37:16;;;;;;;108.50;35.88;;;;;;;3.49;100.00;102814.94;5052412;28;20021;-36
2022/12/01 01:39:41;;;;;;;96.43;35.55;;;;;;;3.45;100.00;102810.72;5060635;28;20037;-36
2022/12/01 01:42:11;;;;;;;102.30;36.67;;;;;;;3.44;100.00;102817.00;5052859;28;20025;-35
2022/12/01 01:44:48;;;;;;;104.30;37.67;;;;;;;3.42;100.00;102813.53;5051938;28;20715;-36
2022/12/01 01:47:15;;;;;;;109.57;35.97;;;;;;;3.46;100.00;102815.97;5061634;28;20033;-35
2022/12/01 01:49:41;;;;;;;110.47;36.58;;;;;;;3.46;100.00;102820.44;5056622;28;20033;-36
2022/12/01 01:52:06;;;;;;;115.25;37.22;;;;;;;3.46;100.00;102815.97;5055283;28;20417;-35
2022/12/01 01:54:37;;;;;;;105.30;36.40;;;;;;;3.47;100.00;102820.31;5053428;28;20029;-36
2022/12/01 01:57:04;;;;;;;111.00;37.63;;;;;;;3.44;100.00;102815.19;5054586;28;20021;-36
2022/12/01 01:59:33;;;;;;;111.13;37.75;;;;;;;3.46;100.00;102815.97;5053727;28;20667;-36
2022/12/01 02:02:07;;;;;;;105.30;35.60;;;;;;;3.48;100.00;102813.22;5051619;28;20483;-36
2022/12/01 02:04:37;;;;;;;122.35;40.45;;;;;;;3.48;100.00;102814.06;5056187;28;20112;-35
2022/12/01 02:07:04;;;;;;;109.88;37.78;;;;;;;3.46;100.00;102807.97;5060783;28;20340;-37
2022/12/01 02:09:29;;;;;;;121.35;40.00;;;;;;;3.45;100.00;102818.69;5078350;28;20037;-36
2022/12/01 02:12:26;;;;;;;105.88;35.15;;;;;;;3.41;100.00;102807.38;5068311;28;20025;-38
2022/12/01 02:15:23;;;;;;;106.38;36.10;;;;;;;3.39;100.00;102811.06;5068629;28;20336;-35
2022/12/01 02:17:51;;;;;;;105.30;36.22;;;;;;;3.36;100.00;102806.78;5058653;28;20033;-36
2022/12/01 02:20:34;;;;;;;;;;;;;;;3.32;100.00;102807.03;5059476;28;20509;-37
2022/12/01 02:23:29;;;;;;;103.30;35.60;;;;;;;3.25;100.00;102794.06;5055857;28;19912;-37
2022/12/01 02:26:23;;;;;;;108.68;37.70;;;;;;;3.26;100.00;102794.94;5051062;28;20060;-35
2022/12/01 02:29:12;;;;;;;114.35;36.00;;;;;;;3.19;100.00;102783.78;5061495;28;20031;-37
2022/12/01 02:31:58;;;;;;;107.53;36.40;;;;;;;3.12;100.00;102782.41;5071277;28;20021;-35
2022/12/01 02:34:35;;;;;;;112.95;39.25;;;;;;;3.08;100.00;102786.16;5051665;28;20032;-38
2022/12/01 02:37:09;;;;;;;125.07;38.03;;;;;;;3.07;100.00;102787.97;5051618;28;20037;-35
2022/12/01 02:39:37;;;;;;;127.63;37.65;;;;;;;3.16;100.00;102791.94;5052018;28;20029;-36
2022/12/01 02:42:05;;;;;;;124.85;37.13;;;;;;;3.20;100.00;102793.47;5056085;28;20032;-36
2022/12/01 02:44:43;;;;;;;125.72;38.55;;;;;;;3.25;100.00;102802.06;5070217;28;20470;-36
2022/12/01 02:47:14;;;;;;;113.15;38.15;;;;;;;3.22;100.00;102794.25;5069534;28;20032;-35
2022/12/01 02:49:44;;;;;;;109.75;38.03;;;;;;;3.25;100.00;102802.06;5070674;28;20116;-38
2022/12/01 02:52:10;;;;;;;114.63;39.30;;;;;;;3.28;100.00;102801.88;5065663;28;20387;-37
2022/12/01 02:54:36;;;;;;;121.18;40.17;;;;;;;3.28;100.00;102801.03;5066175;28;20091;-35
2022/12/01 02:57:01;;;;;;;114.03;37.20;;;;;;;3.23;100.00;102787.97;5051926;28;20033;-36
2022/12/01 02:59:27;;;;;;;118.97;39.22;;;;;;;3.18;100.00;102798.00;5069149;28;20029;-35
2022/12/01 03:02:10;;;;;;;121.85;39.22;;;;;;;3.19;100.00;102807.72;5059726;28;20020;-36
2022/12/01 03:05:00;;;;;;;118.72;38.95;;;;;;;3.15;100.00;102790.22;5053846;28;20055;-34
2022/12/01 03:07:46;;;;;;;121.63;40.22;;;;;;;3.10;100.00;102797.59;5052214;28;20029;-35
2022/12/01 03:10:38;;;;;;;118.93;37.92;;;;;;;3.05;100.00;102800.53;5048806;28;20029;-35
2022/12/01 03:13:09;;;;;;;116.50;38.33;;;;;;;2.99;100.00;102800.00;5057147;28;20478;-35
2022/12/01 03:15:40;;;;;;;116.32;37.88;;;;;;;2.96;100.00;102794.84;5070475;28;20028;-36
2022/12/01 03:18:43;;;;;;;105.30;36.90;;;;;;;2.97;100.00;102801.88;5059422;28;20116;-35
2022/12/01 03:21:18;;;;;;;121.95;39.20;;;;;;;2.92;100.00;102802.13;5050519;28;20028;-38
2022/12/01 03:23:49;;;;;;;118.13;37.58;;;;;;;2.93;100.00;102797.69;5039749;28;20375;-37
2022/12/01 03:26:17;;;;;;;118.93;38.00;;;;;;;2.90;100.00;102789.84;5048948;28;20057;-36
2022/12/01 03:28:45;;;;;;;;;;;;;;;2.83;100.00;102800.81;5066009;28;20428;-36
2022/12/01 03:31:13;;;;;;;106.85;35.72;;;;;;;2.84;100.00;102794.59;5069203;28;19916;-37
2022/12/01 03:33:44;;;;;;;119.72;38.50;;;;;;;2.84;100.00;102794.59;5060405;28;20087;-36
2022/12/01 03:36:18;;;;;;;128.30;41.78;;;;;;;2.93;100.00;102792.38;5050376;28;20557;-35
2022/12/01 03:38:47;;;;;;;123.70;39.30;;;;;;;2.91;100.00;102783.59;5066587;28;20073;-35
2022/12/01 03:41:20;;;;;;;123.03;39.88;;;;;;;2.88;100.00;102786.44;5068557;28;20086;-35
2022/12/01 03:43:51;;;;;;;109.43;39.17;;;;;;;2.85;100.00;102793.63;5061437;28;20122;-36
2022/12/01 03:46:18;;;;;;;116.30;37.80;;;;;;;2.78;100.00;102794.91;5051177;28;20123;-34
2022/12/01 03:48:44;;;;;;;125.10;37.92;;;;;;;2.84;100.00;102799.91;5048691;28;20028;-37
2022/12/01 03:51:33;;;;;;;118.88;37.63;;;;;;;2.79;100.00;102793.97;5054647;28;20522;-38
2022/12/01 03:54:22;;;;;;;120.40;39.15;;;;;;;2.83;100.00;102794.66;5052108;28;20506;-35
2022/12/01 03:56:56;;;;;;;119.60;37.70;;;;;;;2.78;100.00;102792.25;5062393;28;20041;-36
2022/12/01 03:59:23;;;;;;;125.53;39.85;;;;;;;2.83;100.00;102789.34;5059971;28;20127;-35
2022/12/01 04:01:49;;;;;;;121.40;38.67;;;;;;;2.84;100.00;102791.03;5055344;28;20025;-36
2022/12/01 04:04:14;;;;;;;119.18;39.42;;;;;;;2.82;100.00;102787.63;5050533;28;20048;-36
2022/12/01 04:06:42;;;;;;;116.07;37.80;;;;;;;2.77;100.00;102795.84;5064345;28;20447;-37
2022/12/01 04:09:07;;;;;;;120.07;40.25;;;;;;;2.85;100.00;102798.09;5052975;28;20036;-36
2022/12/01 04:14:16;;;;;;;127.70;40.40;;;;;;;2.80;100.00;102798.34;5060614;28;20039;-36
2022/12/01 04:16:42;;;;;;;125.40;39.60;;;;;;;2.81;100.00;102794.72;5057824;28;20395;-35
2022/12/01 04:19:07;;;;;;;120.38;37.03;;;;;;;2.78;100.00;102791.38;5060246;28;20500;-38
2022/12/01 04:21:32;;;;;;;112.20;37.85;;;;;;;2.74;100.00;102795.13;5056479;28;20048;-35
2022/12/01 04:24:01;;;;;;;127.05;39.22;;;;;;;2.73;100.00;102799.59;5059745;28;20050;-36
2022/12/01 04:26:27;;;;;;;;;;;;;;;2.73;100.00;102791.63;5059257;28;20070;-35
2022/12/01 04:28:52;;;;;;;112.85;38.97;;;;;;;2.71;100.00;102798.81;5056913;28;20351;-34
2022/12/01 04:31:17;;;;;;;124.53;39.25;;;;;;;2.70;100.00;102805.09;5056420;28;20029;-35
2022/12/01 04:33:43;;;;;;;116.93;37.38;;;;;;;2.67;100.00;102804.41;5065785;28;20187;-34
2022/12/01 04:36:08;;;;;;;125.85;39.20;;;;;;;2.66;100.00;102803.56;5059990;28;20025;-36
2022/12/01 04:38:35;;;;;;;120.43;41.15;;;;;;;2.63;100.00;102804.56;5054408;28;20035;-35
2022/12/01 04:41:06;;;;;;;117.95;38.33;;;;;;;2.63;100.00;102809.00;5068751;28;20028;-35
2022/12/01 04:43:32;;;;;;;127.35;40.03;;;;;;;2.61;100.00;102811.78;5065109;28;20048;-35
2022/12/01 04:45:57;;;;;;;124.25;40.78;;;;;;;2.58;100.00;102811.94;5061209;28;20352;-37
2022/12/01 04:48:22;;;;;;;118.15;38.17;;;;;;;2.56;100.00;102810.31;5052695;28;20067;-36
2022/12/01 04:50:48;;;;;;;134.10;40.13;;;;;;;2.52;100.00;102800.75;5067797;28;20493;-36
2022/12/01 04:53:13;;;;;;;135.70;39.67;;;;;;;2.51;100.00;102799.91;5061952;28;20499;-36
2022/12/01 04:55:39;;;;;;;130.18;38.28;;;;;;;2.48;100.00;102804.53;5052038;28;20036;-35
2022/12/01 04:58:04;;;;;;;131.43;39.55;;;;;;;2.48;100.00;102799.22;5049163;28;20037;-37
2022/12/01 05:00:30;;;;;;;133.02;40.38;;;;;;;2.46;100.00;102801.94;5050863;28;20502;-36
2022/12/01 05:02:55;;;;;;;132.65;41.03;;;;;;;2.46;100.00;102809.91;5062053;28;20032;-38
2022/12/01 05:05:20;;;;;;;129.05;41.97;;;;;;;2.45;100.00;102807.31;5072841;28;20093;-36
2022/12/01 05:07:46;;;;;;;125.50;41.92;;;;;;;2.42;100.00;102806.56;5057992;28;20029;-36
2022/12/01 05:10:13;;;;;;;132.10;42.47;;;;;;;2.40;100.00;102802.28;5053476;28;20059;-38
2022/12/01 05:12:39;;;;;;;135.40;40.35;;;;;;;2.37;100.00;102802.41;5055937;28;20029;-36
2022/12/01 05:15:06;;;;;;;131.20;39.95;;;;;;;2.36;100.00;102806.03;5056374;28;20056;-37
2022/12/01 05:17:31;;;;;;;134.90;40.67;;;;;;;2.34;100.00;102808.78;5059542;28;20025;-35
2022/12/01 05:22:40;;;;;;;121.30;39.55;;;;;;;2.27;100.00;102802.06;5062028;28;20143;-35
2022/12/01 05:25:06;;;;;;;126.90;39.28;;;;;;;2.25;100.00;102803.94;5062143;28;20496;-37
2022/12/01 05:27:31;;;;;;;138.23;41.47;;;;;;;2.26;100.00;102815.41;5055273;28;20139;-37
2022/12/01 05:29:57;;;;;;;133.45;39.42;;;;;;;2.27;100.00;102809.19;5064250;28;20040;-36
2022/12/01 05:32:22;;;;;;;137.70;41.78;;;;;;;2.25;100.00;102809.25;5060555;28;20029;-38
2022/12/01 05:34:47;;;;;;;130.35;40.55;;;;;;;2.29;100.00;102805.50;5053039;28;20048;-35
2022/12/01 05:37:13;;;;;;;127.55;40.05;;;;;;;2.32;100.00;102808.00;5063947;28;20458;-36
2022/12/01 05:39:39;;;;;;;121.43;39.42;;;;;;;2.50;100.00;102807.94;5056868;28;20451;-35
2022/12/01 05:42:04;;;;;;;129.68;38.88;;;;;;;2.57;100.00;102812.00;5052416;28;20494;-37
2022/12/01 05:44:29;;;;;;;124.43;38.63;;;;;;;2.60;100.00;102815.34;5051966;28;20025;-36
2022/12/01 05:46:55;;;;;;;131.75;40.72;;;;;;;2.68;100.00;102809.63;5052215;28;20471;-36
2022/12/01 05:49:20;;;;;;;133.40;40.03;;;;;;;2.75;100.00;102813.69;5062863;28;20035;-35
2022/12/01 05:51:45;;;;;;;126.63;39.15;;;;;;;2.82;100.00;102815.06;5066262;28;20059;-35
2022/12/01 05:54:11;;;;;;;130.13;39.22;;;;;;;2.85;100.00;102809.59;5054247;28;20025;-37
2022/12/01 05:56:36;;;;;;;130.18;39.88;;;;;;;2.90;100.00;102814.66;5055640;28;20483;-35
2022/12/01 05:59:01;;;;;;;120.43;39.17;;;;;;;2.98;100.00;102808.94;5052009;28;20043;-39
2022/12/01 06:01:27;;;;;;;131.48;39.22;;;;;;;3.01;100.00;102808.75;5053639;28;20029;-37
2022/12/01 06:03:53;;;;;;;122.75;38.33;;;;;;;3.01;100.00;102814.06;5052021;28;20029;-35
2022/12/01 06:06:18;;;;;;;132.05;40.80;;;;;;;3.10;100.00;102824.19;5053649;28;20036;-34
2022/12/01 06:08:44;;;;;;;124.55;39.90;;;;;;;3.17;100.00;102825.59;5050434;28;20390;-35
2022/12/01 06:11:09;;;;;;;127.70;39.67;;;;;;;3.24;100.00;102837.59;5051264;28;20031;-35
2022/12/01 06:13:34;;;;;;;115.15;38.22;;;;;;;3.37;100.00;102837.78;5051561;28;20052;-36
2022/12/01 06:16:02;;;;;;;116.82;39.40;;;;;;;3.36;100.00;102835.19;5051825;28;20027;-36
2022/12/01 06:18:34;;;;;;;125.45;38.50;;;;;;;3.50;100.00;102832.59;5052993;28;20032;-37
2022/12/01 06:21:00;;;;;;;130.60;40.97;;;;;;;3.48;100.00;102834.53;5063158;28;20114;-36
2022/12/01 06:23:25;;;;;;;126.45;39.85;;;;;;;3.48;100.00;102839.84;5066998;28;20071;-36
2022/12/01 06:25:50;;;;;;;123.90;40.40;;;;;;;3.46;100.00;102837.25;5068617;28;20045;-35
2022/12/01 06:28:16;;;;;;;120.57;39.45;;;;;;;3.48;100.00;102838.03;5069356;28;20032;-36
2022/12/01 06:30:42;;;;;;;134.57;43.08;;;;;;;3.52;100.00;102847.53;5051958;28;20044;-36
2022/12/01 06:33:07;;;;;;;118.90;37.80;;;;;;;3.52;100.00;102841.38;5053250;28;20037;-36
2022/12/01 06:35:33;;;;;;;129.77;40.40;;;;;;;3.53;100.00;102848.44;5071951;28;20313;-37
2022/12/01 06:37:59;;;;;;;120.25;37.90;;;;;;;3.57;100.00;102849.97;5065152;28;20056;-36
2022/12/01 06:40:24;;;;;;;118.15;38.25;;;;;;;3.53;100.00;102843.09;5053426;28;20064;-36
2022/12/01 06:42:49;;;;;;;131.40;41.58;;;;;;;3.54;100.00;102843.97;5070459;28;20059;-35
2022/12/01 06:45:15;;;;;;;129.77;40.50;;;;;;;3.55;100.00;102846.50;5069127;28;20040;-36
2022/12/01 06:47:40;;;;;;;120.40;39.45;;;;;;;3.60;100.00;102846.25;5067210;28;20490;-36
2022/12/01 06:50:08;;;;;;;120.15;38.63;;;;;;;3.61;100.00;102842.69;5061824;28;20136;-39
2022/12/01 06:52:34;;;;;;;;;;;;;;;3.62;100.00;102847.91;5051131;28;20028;-36
2022/12/01 06:54:59;;;;;;;117.35;38.33;;;;;;;3.56;100.00;102848.25;5050417;28;19916;-36
2022/12/01 06:57:25;;;;;;;132.10;40.95;;;;;;;3.52;100.00;102847.53;5054691;28;20073;-38
2022/12/01 06:59:50;;;;;;;122.15;36.75;;;;;;;3.54;100.00;102852.81;5050027;28;20025;-37
2022/12/01 07:02:16;;;;;;;117.90;39.80;;;;;;;3.53;100.00;102848.44;5065593;28;20036;-36
2022/12/01 07:04:41;;;;;;;133.48;40.17;;;;;;;3.54;100.00;102854.59;5067024;28;20123;-39
2022/12/01 07:07:07;;;;;;;123.30;38.72;;;;;;;3.55;100.00;102857.16;5070058;28;20043;-36
2022/12/01 07:09:32;;;;;;;125.90;39.20;;;;;;;3.59;100.00;102853.41;5068496;28;20091;-38
2022/12/01 07:11:58;;;;;;;126.75;40.17;;;;;;;3.60;100.00;102854.25;5062023;28;20035;-38
2022/12/01 07:14:25;;;;;;;123.43;39.60;;;;;;;3.66;100.00;102857.44;5069810;28;20359;-35
2022/12/01 07:16:50;;;;;;;127.63;38.73;;;;;;;3.69;100.00;102859.91;5058164;28;20117;-38
2022/12/01 07:19:16;;;;;;;121.45;39.47;;;;;;;3.68;100.00;102863.50;5057449;28;20326;-35
2022/12/01 07:21:41;;;;;;;130.73;39.08;;;;;;;3.64;100.00;102867.31;5058478;28;20102;-35
2022/12/01 07:24:07;;;;;;;125.80;38.15;;;;;;;3.65;100.00;102870.81;5049844;28;20056;-38
2022/12/01 07:26:32;;;;;;;128.30;39.90;;;;;;;3.66;100.00;102865.44;5068279;28;20047;-36
2022/12/01 07:28:58;;;;;;;126.57;39.55;;;;;;;3.65;100.00;102862.84;5070923;28;20068;-36
2022/12/01 07:31:23;;;;;;;128.25;39.08;;;;;;;3.60;100.00;102865.75;5060211;28;20152;-36
2022/12/01 07:33:48;;;;;;;134.88;40.17;;;;;;;3.59;100.00;102869.38;5052055;28;20025;-35
2022/12/01 07:36:14;;;;;;;126.82;39.92;;;;;;;3.59;100.00;102876.50;5059163;28;20205;-36
2022/12/01 07:38:40;;;;;;;129.00;39.33;;;;;;;3.66;100.00;102881.41;5062496;28;20375;-36
2022/12/01 07:41:10;;;;;;;127.50;40.42;;;;;;;3.76;100.00;102883.53;5062515;28;20123;-37
2022/12/01 07:43:36;;;;;;;130.73;40.03;;;;;;;3.73;100.00;102893.41;5063064;28;20121;-36
2022/12/01 07:46:16;;;;;;;123.45;38.95;;;;;;;3.80;100.00;102888.59;5061100;28;20033;-37
2022/12/01 07:48:41;;;;;;;132.32;41.03;;;;;;;3.86;100.00;102890.91;5063000;28;20101;-42
2022/12/01 07:51:09;;;;;;;139.48;42.50;;;;;;;3.94;100.00;102887.81;5064185;28;20103;-38
2022/12/01 07:53:35;;;;;;;123.35;40.05;;;;;;;4.05;100.00;102898.69;5064119;28;20040;-35
2022/12/01 07:56:00;;;;;;;134.65;39.22;;;;;;;3.99;100.00;102900.88;5062879;28;20035;-35
2022/12/01 07:58:26;;;;;;;137.00;40.25;;;;;;;4.10;100.00;102904.63;5060706;28;20040;-36
2022/12/01 08:00:52;;;;;;;128.15;40.83;;;;;;;4.14;100.00;102903.50;5056036;28;20051;-38
2022/12/01 08:03:18;;;;;;;115.80;38.40;;;;;;;4.22;100.00;102907.53;5058750;28;20032;-36
2022/12/01 08:05:43;;;;;;;125.40;38.05;;;;;;;4.23;100.00;102907.44;5062136;28;20040;-35
2022/12/01 08:08:09;;;;;;;130.85;40.45;;;;;;;4.27;100.00;102908.13;5059865;28;20064;-36
2022/12/01 08:10:35;;;;;;;127.65;40.28;;;;;;;4.32;100.00;102911.38;5062219;28;20191;-37
2022/12/01 08:13:00;;;;;;;128.32;40.22;;;;;;;4.33;100.00;102908.59;5061236;28;20028;-37
2022/12/01 08:15:25;;;;;;;126.47;41.38;;;;;;;4.33;100.00;102905.94;5060476;28;20401;-36
2022/12/01 08:17:51;;;;;;;123.50;39.83;;;;;;;4.39;100.00;102918.03;5060314;28;20024;-37
2022/12/01 08:20:16;;;;;;;117.20;38.97;;;;;;;4.38;100.00;102921.66;5062617;28;20029;-37
2022/12/01 08:22:42;;;;;;;141.20;42.03;;;;;;;4.49;100.00;102924.56;5062577;28;20036;-37
2022/12/01 08:25:07;;;;;;;124.78;40.05;;;;;;;4.70;100.00;102924.22;5062887;28;20048;-35
2022/12/01 08:27:33;;;;;;;128.20;42.58;;;;;;;5.03;100.00;102929.31;5060332;28;20060;-35
2022/12/01 08:29:59;;;;;;;122.65;40.85;;;;;;;5.03;100.00;102924.84;5059100;28;20115;-36
2022/12/01 08:32:24;;;;;;;117.63;39.88;;;;;;;5.23;100.00;102936.09;5063182;28;20468;-38
2022/12/01 08:34:49;;;;;;;109.00;38.10;;;;;;;5.54;100.00;102934.16;5064612;28;20060;-38
2022/12/01 08:37:15;;;;;;;115.65;40.55;;;;;;;5.98;100.00;102934.00;5064704;28;20415;-38
2022/12/01 08:39:40;;;;;;;114.80;38.60;;;;;;;6.17;100.00;102938.97;5064112;28;20096;-36
2022/12/01 08:42:05;;;;;;;123.22;40.97;;;;;;;6.25;100.00;102938.47;5061774;28;20082;-36
2022/12/01 08:44:31;;;;;;;100.45;37.45;;;;;;;6.22;100.00;102934.19;5059708;28;20029;-40
2022/12/01 08:46:56;;;;;;;104.43;37.83;;;;;;;6.38;100.00;102934.88;5053762;28;20021;-37
2022/12/01 08:49:21;;;;;;;109.60;37.35;;;;;;;6.48;100.00;102937.78;5071441;28;20036;-39
2022/12/01 08:51:47;;;;;;;109.38;38.00;;;;;;;6.51;100.00;102932.22;5069795;28;20478;-37
2022/12/01 08:54:12;;;;;;;105.05;36.40;;;;;;;6.59;100.00;102937.06;5053384;28;20418;-37
2022/12/01 08:56:40;;;;;;;99.15;36.00;;;;;;;6.54;100.00;102934.69;5053536;28;20378;-36
2022/12/01 08:59:06;;;;;;;94.75;33.60;;;;;;;6.43;100.00;102923.88;5053559;28;20460;-36
2022/12/01 09:01:31;;;;;;;97.25;34.92;;;;;;;6.36;100.00;102914.53;5052039;28;20107;-36
2022/12/01 09:04:04;;;;;;;95.82;34.15;;;;;;;6.46;100.00;102904.06;5053588;28;20037;-35
2022/12/01 09:06:37;;;;;;;91.90;34.95;;;;;;;6.59;100.00;102908.47;5058292;28;20024;-36
2022/12/01 09:09:02;;;;;;;93.35;36.10;;;;;;;6.72;100.00;102908.50;5073503;28;20056;-38
2022/12/01 09:11:27;;;;;;;102.20;34.72;;;;;;;6.77;100.00;102914.38;5056325;28;20498;-37
2022/12/01 09:13:53;;;;;;;90.85;34.40;;;;;;;6.74;100.00;102911.94;5053542;28;20033;-35
2022/12/01 09:16:18;;;;;;;89.50;34.60;;;;;;;6.71;100.00;102908.59;5056115;28;20100;-38
2022/12/01 09:18:45;;;;;;;92.00;34.60;;;;;;;6.72;100.00;102913.84;5071257;28;20442;-36
2022/12/01 09:21:16;;;;;;;98.03;35.47;;;;;;;6.79;100.00;102909.78;5056744;28;20137;-38
2022/12/01 09:23:41;;;;;;;90.00;34.05;;;;;;;6.87;100.00;102914.59;5068146;28;20043;-36
2022/12/01 09:26:07;;;;;;;89.97;34.13;;;;;;;6.73;100.00;102909.34;5058368;28;20041;-38
2022/12/01 09:28:33;;;;;;;89.30;34.10;;;;;;;6.74;100.00;102916.41;5057794;28;20436;-35
2022/12/01 09:31:04;;;;;;;91.80;32.30;;;;;;;6.72;100.00;102918.34;5070341;28;20032;-37
2022/12/01 09:33:29;;;;;;;91.93;33.35;;;;;;;6.71;100.00;102922.81;5057398;28;20032;-36
2022/12/01 09:35:58;;;;;;;87.18;33.13;;;;;;;6.56;100.00;102914.03;5057958;28;20028;-39
2022/12/01 09:38:23;;;;;;;87.10;34.00;;;;;;;6.55;100.00;102906.09;5052236;28;20089;-35
2022/12/01 09:40:49;;;;;;;97.25;34.03;;;;;;;6.45;100.00;102905.03;5055310;28;20140;-35
2022/12/01 09:43:20;;;;;;;89.18;33.75;;;;;;;6.41;100.00;102914.22;5065769;28;20062;-35
2022/12/01 09:45:50;;;;;;;86.93;34.15;;;;;;;6.35;100.00;102911.00;5056255;28;20033;-36
2022/12/01 09:48:28;;;;;;;85.00;33.83;;;;;;;6.40;100.00;102912.50;5056545;28;20028;-38
2022/12/01 09:50:53;;;;;;;;;;;;;;;6.36;100.00;102909.19;5059696;28;20116;-35
2022/12/01 09:53:21;;;;;;;94.32;34.30;;;;;;;6.45;100.00;102915.72;5060048;28;20003;-36
2022/12/01 09:55:47;;;;;;;88.20;33.20;;;;;;;6.42;100.00;102899.88;5061603;28;20188;-36
2022/12/01 09:58:17;;;;;;;86.45;33.38;;;;;;;6.46;100.00;102912.09;5062488;28;20425;-36
2022/12/01 10:00:43;;;;;;;93.97;34.22;;;;;;;6.49;100.00;102898.50;5049909;28;20043;-35
2022/12/01 10:03:18;;;;;;;86.82;33.35;;;;;;;6.50;100.00;102892.19;5060204;28;20024;-35
2022/12/01 10:05:47;;;;;;;89.07;34.15;;;;;;;6.52;100.00;102891.13;5054451;28;20093;-35
2022/12/01 10:08:15;;;;;;;84.38;31.85;;;;;;;6.59;100.00;102896.94;5058002;28;20048;-35
2022/12/01 10:10:42;;;;;;;;;;;;;;;6.67;100.00;102899.94;5052316;28;20429;-38
2022/12/01 10:13:15;;;;;;;83.70;32.67;;;;;;;6.64;100.00;102892.13;5052185;28;19978;-35
2022/12/01 10:15:53;;;;;;;88.95;32.65;;;;;;;6.63;100.00;102893.06;5051612;28;20479;-35
2022/12/01 10:18:48;;;;;;;87.45;33.58;;;;;;;6.53;100.00;102867.91;5052444;28;20427;-37
2022/12/01 10:21:25;;;;;;;89.43;33.25;;;;;;;6.90;100.00;102878.72;5063277;28;20070;-37
2022/12/01 10:24:18;;;;;;;89.32;34.22;;;;;;;7.71;100.00;102870.19;5055642;28;20055;-38
2022/12/01 10:27:01;;;;;;;76.88;31.60;;;;;;;8.53;100.00;102860.41;5057509;28;20044;-36
2022/12/01 10:29:47;;;;;;;75.55;31.58;;;;;;;9.36;100.00;102861.88;5060978;28;20033;-36
2022/12/01 10:32:17;;;;;;;75.75;30.45;;;;;;;9.82;100.00;102851.88;5057655;28;20140;-36
2022/12/01 10:34:46;;;;;;;67.53;28.35;;;;;;;9.91;100.00;102847.56;5058487;28;20032;-36
2022/12/01 10:37:20;;;;;;;73.82;28.67;;;;;;;9.94;100.00;102850.00;5067749;28;20198;-36
2022/12/01 10:39:48;;;;;;;72.88;30.02;;;;;;;9.87;100.00;102844.28;5050825;28;20041;-36
2022/12/01 10:42:35;;;;;;;64.85;27.92;;;;;;;9.55;100.00;102852.31;5052408;28;20037;-36
2022/12/01 10:45:04;;;;;;;66.80;27.80;;;;;;;9.47;100.00;102857.47;5054007;28;20036;-35
2022/12/01 10:47:30;;;;;;;63.22;28.63;;;;;;;9.48;100.00;102859.16;5066477;28;20071;-36
2022/12/01 10:49:56;;;;;;;74.30;29.17;;;;;;;9.61;100.00;102866.13;5064419;28;20069;-35
2022/12/01 10:52:36;;;;;;;74.18;30.10;;;;;;;9.76;100.00;102857.75;5059551;28;20558;-36
2022/12/01 10:55:25;;;;;;;69.38;28.48;;;;;;;9.96;100.00;102858.81;5068644;28;20360;-36
2022/12/01 10:57:51;;;;;;;65.95;27.73;;;;;;;10.04;100.00;102853.63;5057074;28;20237;-36
2022/12/01 11:00:25;;;;;;;61.78;27.27;;;;;;;10.16;100.00;102851.72;5053784;28;20452;-36
2022/12/01 11:02:51;;;;;;;65.72;26.17;;;;;;;10.31;100.00;102854.00;5059609;28;20316;-38
2022/12/01 11:05:23;;;;;;;64.05;27.05;;;;;;;10.46;99.77;102849.16;5058188;28;20039;-37
2022/12/01 11:07:48;;;;;;;61.58;26.77;;;;;;;10.51;96.43;102843.38;5051476;28;20029;-35
2022/12/01 11:10:22;;;;;;;59.63;25.92;;;;;;;10.61;94.92;102833.53;5048421;28;20364;-37
2022/12/01 11:13:23;;;;;;;69.93;27.30;;;;;;;10.76;96.51;102837.53;5051501;28;20430;-38
2022/12/01 11:15:59;;;;;;;63.90;27.30;;;;;;;10.91;94.59;102837.22;5056245;28;20182;-37
2022/12/01 11:18:36;;;;;;;58.25;25.85;;;;;;;10.97;91.68;102836.66;5068468;28;20029;-36
2022/12/01 11:21:24;;;;;;;52.00;23.73;;;;;;;11.41;89.90;102826.44;5061064;28;20032;-35
2022/12/01 11:23:52;;;;;;;55.83;25.48;;;;;;;11.86;86.75;102815.16;5066283;28;20032;-38